createdAt,value
2023-01-04T00:01:55.910Z,100567.94
2023-01-04T00:04:22.713Z,100570.13
2023-01-04T00:06:49.466Z,100571.38
2023-01-04T00:09:16.250Z,100586.66
2023-01-04T00:11:42.983Z,100582.56
2023-01-04T00:14:11.247Z,100588.72
2023-01-04T00:16:38.051Z,100592.09
2023-01-04T00:19:04.812Z,100588.72
2023-01-04T00:21:32.051Z,100600.09
2023-01-04T00:24:00.913Z,100594.94
2023-01-04T00:26:30.962Z,100589.97
2023-01-04T00:29:06.347Z,100596.22
2023-01-04T00:31:34.979Z,100596.34
2023-01-04T00:34:04.460Z,100594.84
2023-01-04T00:36:32.283Z,100591.41
2023-01-04T00:39:15.390Z,100576.13
2023-01-04T00:42:01.446Z,100573.22
2023-01-04T00:44:29.504Z,100595.91
2023-01-04T00:46:56.704Z,100599.25
2023-01-04T00:49:23.747Z,100606.22
2023-01-04T00:51:50.731Z,100604.31
2023-01-04T00:54:18.265Z,100600.75
2023-01-04T00:56:45.182Z,100611.78
2023-01-04T00:59:16.753Z,100601.09
2023-01-04T01:01:43.929Z,100604.47
2023-01-04T01:04:14.215Z,100597.34
2023-01-04T01:06:41.563Z,100591.91
2023-01-04T01:09:08.841Z,100590.97
2023-01-04T01:11:36.947Z,100596.13
2023-01-04T01:14:03.928Z,100595.25
2023-01-04T01:16:53.512Z,100593.41
2023-01-04T01:19:18.106Z,100604.94
2023-01-04T01:21:44.961Z,100607.66
2023-01-04T01:24:17.282Z,100609.53
2023-01-04T01:26:44.052Z,100605.34
2023-01-04T01:29:11.081Z,100593.53
2023-01-04T01:31:37.962Z,100595.22
2023-01-04T01:34:04.831Z,100596.06
2023-01-04T01:36:31.718Z,100593.53
2023-01-04T01:38:58.462Z,100598.03
2023-01-04T01:41:30.245Z,100597.47
2023-01-04T01:43:59.823Z,100598.81
2023-01-04T01:46:45.705Z,100612.09
2023-01-04T01:49:12.520Z,100613.06
2023-01-04T01:51:40.363Z,100618.22
2023-01-04T01:54:12.510Z,100615.47
2023-01-04T01:56:42.220Z,100614.25
2023-01-04T01:59:11.539Z,100622.13
2023-01-04T02:01:38.414Z,100631.50
2023-01-04T02:04:05.729Z,100633.94
2023-01-04T02:06:40.447Z,100639.91
2023-01-04T02:09:07.691Z,100644.22
2023-01-04T02:11:34.444Z,100640.09
2023-01-04T02:14:21.643Z,100648.63
2023-01-04T02:17:12.849Z,100644.22
2023-01-04T02:20:03.966Z,100646.94
2023-01-04T02:23:12.920Z,100639.91
2023-01-04T02:26:09.799Z,100650.59
2023-01-04T02:28:51.732Z,100662.78
2023-01-04T02:31:44.298Z,100656.06
2023-01-04T02:34:30.001Z,100662.50
2023-01-04T02:37:12.089Z,100667.66
2023-01-04T02:40:26.530Z,100676.66
2023-01-04T02:43:37.741Z,100688.06
2023-01-04T02:46:26.051Z,100697.81
2023-01-04T02:49:11.366Z,100689.03
2023-01-04T02:51:39.189Z,100688.25
2023-01-04T02:54:19.311Z,100690.13
2023-01-04T02:57:09.831Z,100691.19
2023-01-04T02:59:50.127Z,100694.63
2023-01-04T03:03:12.900Z,100690.22
2023-01-04T03:06:11.928Z,100694.63
2023-01-04T03:08:47.765Z,100695.47
2023-01-04T03:11:35.312Z,100695.47
2023-01-04T03:14:31.594Z,100701.09
2023-01-04T03:17:04.692Z,100704.56
2023-01-04T03:19:51.641Z,100689.00
2023-01-04T03:22:44.793Z,100687.34
2023-01-04T03:25:32.377Z,100693.50
2023-01-04T03:28:19.486Z,100694.44
2023-01-04T03:31:20.227Z,100692.59
2023-01-04T03:34:06.415Z,100699.50
2023-01-04T03:37:06.451Z,100698.84
2023-01-04T03:40:10.692Z,100711.84
2023-01-04T03:43:23.182Z,100709.25
2023-01-04T03:46:13.774Z,100706.63
2023-01-04T03:48:53.587Z,100715.63
2023-01-04T03:51:25.758Z,100719.34
2023-01-04T03:54:06.813Z,100718.69
2023-01-04T03:56:37.658Z,100721.47
2023-01-04T03:59:05.522Z,100714.47
2023-01-04T04:01:32.425Z,100722.91
2023-01-04T04:04:18.046Z,100731.53
2023-01-04T04:07:03.597Z,100721.22
2023-01-04T04:09:30.495Z,100725.44
2023-01-04T04:11:57.968Z,100729.81
2023-01-04T04:14:25.396Z,100735.28
2023-01-04T04:16:52.206Z,100730.69
2023-01-04T04:19:19.037Z,100744.81
2023-01-04T04:21:45.747Z,100733.41
2023-01-04T04:24:24.641Z,100740.50
2023-01-04T04:26:54.511Z,100757.50
2023-01-04T04:29:22.065Z,100760.50
2023-01-04T04:31:48.944Z,100753.94
2023-01-04T04:34:15.687Z,100756.66
2023-01-04T04:36:42.436Z,100764.78
2023-01-04T04:39:09.368Z,100759.75
2023-01-04T04:41:38.900Z,100756.38
2023-01-04T04:44:14.828Z,100756.47
2023-01-04T04:46:42.366Z,100761.53
2023-01-04T04:49:10.155Z,100767.38
2023-01-04T04:51:38.203Z,100771.50
2023-01-04T04:54:05.541Z,100771.44
2023-01-04T04:56:32.722Z,100753.75
2023-01-04T04:58:59.575Z,100769.47
2023-01-04T05:01:26.480Z,100756.66
2023-01-04T05:03:53.279Z,100756.16
2023-01-04T05:06:20.564Z,100761.69
2023-01-04T05:08:47.365Z,100775.25
2023-01-04T05:11:14.789Z,100778.13
2023-01-04T05:13:41.933Z,100783.53
2023-01-04T05:16:10.116Z,100782.78
2023-01-04T05:18:37.232Z,100795.72
2023-01-04T05:21:04.460Z,100789.28
2023-01-04T05:23:31.196Z,100789.94
2023-01-04T05:26:01.248Z,100810.06
2023-01-04T05:28:28.054Z,100809.41
2023-01-04T05:30:55.846Z,100821.50
2023-01-04T05:33:24.562Z,100813.13
2023-01-04T05:35:53.344Z,100810.84
2023-01-04T05:38:23.940Z,100811.75
2023-01-04T05:40:51.489Z,100814.38
2023-01-04T05:43:20.114Z,100823.03
2023-01-04T05:45:52.701Z,100827.16
2023-01-04T05:48:20.141Z,100830.34
2023-01-04T05:50:47.363Z,100822.25
2023-01-04T05:53:17.767Z,100826.47
2023-01-04T05:55:45.874Z,100821.88
2023-01-04T05:58:12.679Z,100813.19
2023-01-04T06:00:39.413Z,100832.28
2023-01-04T06:03:06.427Z,100842.63
2023-01-04T06:05:33.387Z,100845.25
2023-01-04T06:08:00.170Z,100847.03
2023-01-04T06:10:27.014Z,100844.63
2023-01-04T06:12:53.744Z,100854.63
2023-01-04T06:15:20.496Z,100843.47
2023-01-04T06:17:47.266Z,100848.28
2023-01-04T06:20:13.983Z,100852.00
2023-01-04T06:22:41.827Z,100834.84
2023-01-04T06:25:09.836Z,100848.63
2023-01-04T06:27:36.659Z,100852.16
2023-01-04T06:30:04.114Z,100848.78
2023-01-04T06:32:30.921Z,100853.50
2023-01-04T06:34:57.792Z,100849.63
2023-01-04T06:37:24.592Z,100854.44
2023-01-04T06:39:51.633Z,100850.56
2023-01-04T06:42:37.175Z,100844.22
2023-01-04T06:45:04.469Z,100856.91
2023-01-04T06:47:31.253Z,100870.59
2023-01-04T06:49:57.941Z,100858.25
2023-01-04T06:52:24.718Z,100863.16
2023-01-04T06:54:51.521Z,100864.00
2023-01-04T06:57:18.299Z,100869.00
2023-01-04T06:59:45.057Z,100878.34
2023-01-04T07:02:15.688Z,100892.13
2023-01-04T07:04:43.391Z,100895.34
2023-01-04T07:07:10.466Z,100903.13
2023-01-04T07:09:37.560Z,100909.88
2023-01-04T07:12:04.601Z,100917.00
2023-01-04T07:14:31.362Z,100916.00
2023-01-04T07:16:58.157Z,100902.19
2023-01-04T07:19:25.262Z,100916.16
2023-01-04T07:21:54.041Z,100910.03
2023-01-04T07:24:24.690Z,100905.59
2023-01-04T07:26:56.605Z,100919.63
2023-01-04T07:29:25.517Z,100929.28
2023-01-04T07:31:53.023Z,100928.78
2023-01-04T07:34:24.442Z,100935.00
2023-01-04T07:36:51.273Z,100938.91
2023-01-04T07:39:18.797Z,100942.66
2023-01-04T07:41:46.472Z,100940.34
2023-01-04T07:44:13.912Z,100942.31
2023-01-04T07:46:42.655Z,100942.81
2023-01-04T07:49:17.518Z,100950.09
2023-01-04T07:51:46.475Z,100947.00
2023-01-04T07:54:13.442Z,100945.81
2023-01-04T07:56:40.264Z,100955.84
2023-01-04T07:59:09.025Z,100945.84
2023-01-04T08:01:38.103Z,100955.72
2023-01-04T08:04:09.553Z,100963.00
2023-01-04T08:06:37.059Z,100963.00
2023-01-04T08:09:05.338Z,100971.44
2023-01-04T08:11:33.195Z,100961.66
2023-01-04T08:14:00.167Z,100963.28
2023-01-04T08:16:33.066Z,100976.13
2023-01-04T08:19:15.870Z,100966.66
2023-01-04T08:21:42.954Z,100974.97
2023-01-04T08:24:12.168Z,100972.88
2023-01-04T08:26:38.884Z,100985.84
2023-01-04T08:29:05.666Z,100990.78
2023-01-04T08:31:33.662Z,100991.47
2023-01-04T08:34:04.389Z,100985.22
2023-01-04T08:36:33.725Z,101007.59
2023-01-04T08:39:06.122Z,101011.56
2023-01-04T08:44:37.872Z,101030.69
2023-01-04T08:47:04.849Z,101031.59
2023-01-04T08:49:31.840Z,101044.63
2023-01-04T08:51:58.576Z,101039.38
2023-01-04T08:54:25.526Z,101042.94
2023-01-04T08:56:52.251Z,101047.50
2023-01-04T08:59:18.989Z,101038.97
2023-01-04T09:01:46.328Z,101044.28
2023-01-04T09:04:13.592Z,101048.97
2023-01-04T09:06:40.710Z,101061.22
2023-01-04T09:09:07.581Z,101082.28
2023-01-04T09:11:35.452Z,101086.50
2023-01-04T09:14:07.913Z,101083.94
2023-01-04T09:16:36.186Z,101088.19
2023-01-04T09:19:03.313Z,101100.25
2023-01-04T09:21:30.135Z,101103.63
2023-01-04T09:23:58.918Z,101105.31
2023-01-04T09:26:25.677Z,101109.63
2023-01-04T09:28:54.236Z,101100.84
2023-01-04T09:31:24.287Z,101106.25
2023-01-04T09:36:38.887Z,101119.88
2023-01-04T09:39:05.799Z,101113.19
2023-01-04T09:41:38.945Z,101130.44
2023-01-04T09:44:08.761Z,101124.59
2023-01-04T09:46:58.769Z,101125.28
2023-01-04T09:49:40.814Z,101131.31
2023-01-04T09:52:10.573Z,101137.94
2023-01-04T09:54:43.055Z,101144.09
2023-01-04T09:57:24.060Z,101146.78
2023-01-04T10:00:20.164Z,101132.06
2023-01-04T10:03:03.815Z,101152.34
2023-01-04T10:05:33.034Z,101146.78
2023-01-04T10:08:00.089Z,101137.84
2023-01-04T10:11:04.515Z,101148.94
2023-01-04T10:14:01.935Z,101165.28
2023-01-04T10:17:10.468Z,101180.38
2023-01-04T10:23:03.006Z,101202.34
2023-01-04T10:25:47.438Z,101214.19
2023-01-04T10:28:24.741Z,101216.75
2023-01-04T10:31:38.707Z,101222.00
2023-01-04T10:34:02.007Z,101225.72
2023-01-04T10:36:34.071Z,101225.63
2023-01-04T10:39:04.319Z,101230.81
2023-01-04T10:41:38.949Z,101244.00
2023-01-04T10:44:27.283Z,101233.06
2023-01-04T10:47:18.200Z,101241.53
2023-01-04T10:49:53.139Z,101256.50
2023-01-04T10:52:31.192Z,101257.19
2023-01-04T10:55:11.560Z,101269.28
2023-01-04T10:57:58.188Z,101268.44
2023-01-04T11:00:43.890Z,101282.31
2023-01-04T11:03:25.936Z,101285.50
2023-01-04T11:06:10.520Z,101277.69
2023-01-04T11:08:48.984Z,101282.63
2023-01-04T11:11:27.057Z,101278.06
2023-01-04T11:13:54.040Z,101290.41
2023-01-04T11:16:21.168Z,101290.59
2023-01-04T11:18:50.425Z,101283.00
2023-01-04T11:21:21.996Z,101279.72
2023-01-04T11:23:48.777Z,101284.72
2023-01-04T11:26:29.449Z,101290.38
2023-01-04T11:29:05.558Z,101282.09
2023-01-04T11:31:41.370Z,101286.66
2023-01-04T11:34:08.130Z,101273.44
2023-01-04T11:36:36.478Z,101274.78
2023-01-04T11:39:06.233Z,101278.50
2023-01-04T11:41:33.014Z,101276.06
2023-01-04T11:44:03.613Z,101271.03
2023-01-04T11:46:31.840Z,101277.00
2023-01-04T11:48:58.967Z,101265.53
2023-01-04T11:51:31.891Z,101273.94
2023-01-04T11:54:19.242Z,101263.00
2023-01-04T11:57:18.400Z,101254.53
2023-01-04T11:59:45.179Z,101264.28
2023-01-04T12:02:58.702Z,101266.75
2023-01-04T12:05:29.407Z,101263.22
2023-01-04T12:07:58.027Z,101257.72
2023-01-04T12:10:27.671Z,101267.00
2023-01-04T12:12:56.528Z,101266.69
2023-01-04T12:16:03.739Z,101268.16
2023-01-04T12:18:36.152Z,101273.78
2023-01-04T12:21:03.324Z,101270.22
2023-01-04T12:23:30.797Z,101275.50
2023-01-04T12:25:57.734Z,101251.97
2023-01-04T12:28:46.310Z,101262.66
2023-01-04T12:31:22.519Z,101272.44
2023-01-04T12:34:19.874Z,101277.50
2023-01-04T12:37:05.797Z,101276.22
2023-01-04T12:39:43.848Z,101270.75
2023-01-04T12:42:17.790Z,101268.41
2023-01-04T12:44:47.167Z,101275.47
2023-01-04T12:47:34.985Z,101273.69
2023-01-04T12:50:11.154Z,101283.75
2023-01-04T12:55:44.176Z,101268.97
2023-01-04T13:02:24.470Z,101275.00
2023-01-04T13:05:16.864Z,101276.97
2023-01-04T13:07:43.015Z,101280.16
2023-01-04T13:10:27.904Z,101287.88
2023-01-04T13:13:31.880Z,101297.38
2023-01-04T13:16:10.857Z,101290.31
2023-01-04T13:18:56.705Z,101285.13
2023-01-04T13:21:33.617Z,101280.03
2023-01-04T13:24:16.748Z,101285.38
2023-01-04T13:26:48.438Z,101291.59
2023-01-04T13:29:31.407Z,101297.94
2023-01-04T13:32:02.309Z,101303.22
2023-01-04T13:34:36.568Z,101303.59
2023-01-04T13:37:12.446Z,101317.00
2023-01-04T13:39:42.011Z,101313.91
2023-01-04T13:42:26.912Z,101315.47
2023-01-04T13:45:33.043Z,101303.81
2023-01-04T13:48:03.967Z,101325.06
2023-01-04T13:50:47.523Z,101345.94
2023-01-04T13:53:25.556Z,101342.44
2023-01-04T13:55:54.221Z,101343.78
2023-01-04T13:58:23.921Z,101340.41
2023-01-04T14:00:56.455Z,101350.25
2023-01-04T14:03:31.399Z,101347.81
2023-01-04T14:06:11.405Z,101336.19
2023-01-04T14:08:52.838Z,101330.19
2023-01-04T14:11:39.366Z,101338.56
2023-01-04T14:14:18.747Z,101341.97
2023-01-04T14:16:45.898Z,101350.25
2023-01-04T14:19:42.188Z,101348.16
2023-01-04T14:22:21.128Z,101354.00
2023-01-04T14:27:39.069Z,101363.59
2023-01-04T14:30:17.995Z,101363.78
2023-01-04T14:33:00.452Z,101383.00
2023-01-04T14:35:30.239Z,101378.78
2023-01-04T14:38:05.314Z,101391.16
2023-01-04T14:40:32.746Z,101391.81
2023-01-04T14:42:59.599Z,101391.94
2023-01-04T14:45:26.373Z,101393.97
2023-01-04T14:47:53.098Z,101396.16
2023-01-04T14:50:20.418Z,101396.59
2023-01-04T14:52:54.384Z,101388.19
2023-01-04T14:55:23.510Z,101392.59
2023-01-04T14:57:50.399Z,101391.16
2023-01-04T15:00:19.858Z,101397.84
2023-01-04T15:02:50.567Z,101391.06
2023-01-04T15:05:20.538Z,101398.13
2023-01-04T15:07:47.536Z,101397.09
2023-01-04T15:10:26.763Z,101401.81
2023-01-04T15:12:54.646Z,101416.59
2023-01-04T15:15:21.839Z,101402.69
2023-01-04T15:17:48.775Z,101405.06
2023-01-04T15:20:15.827Z,101398.44
2023-01-04T15:22:43.060Z,101391.97
2023-01-04T15:25:11.561Z,101401.88
2023-01-04T15:27:42.136Z,101420.34
2023-01-04T15:30:10.578Z,101413.59
2023-01-04T15:32:37.436Z,101419.25
2023-01-04T15:35:04.559Z,101434.03
2023-01-04T15:37:31.461Z,101431.34
2023-01-04T15:40:02.247Z,101434.59
2023-01-04T15:42:48.234Z,101433.34
2023-01-04T15:45:15.121Z,101430.25
2023-01-04T15:47:41.928Z,101437.44
2023-01-04T15:50:09.028Z,101429.84
2023-01-04T15:52:35.979Z,101446.66
2023-01-04T15:55:02.849Z,101447.59
2023-01-04T15:57:29.539Z,101438.94
2023-01-04T15:59:56.295Z,101435.22
2023-01-04T16:02:23.146Z,101453.69
2023-01-04T16:04:50.539Z,101454.53
2023-01-04T16:07:18.141Z,101458.06
2023-01-04T16:09:45.107Z,101480.91
2023-01-04T16:12:30.447Z,101459.16
2023-01-04T16:14:57.189Z,101463.38
2023-01-04T16:17:25.347Z,101469.66
2023-01-04T16:19:52.127Z,101471.34
2023-01-04T16:22:18.939Z,101485.47
2023-01-04T16:25:09.714Z,101477.66
2023-01-04T16:27:35.663Z,101473.31
2023-01-04T16:30:04.010Z,101480.22
2023-01-04T16:32:30.860Z,101482.06
2023-01-04T16:34:57.736Z,101496.78
2023-01-04T16:37:29.000Z,101494.16
2023-01-04T16:40:11.126Z,101495.09
2023-01-04T16:42:38.924Z,101490.91
2023-01-04T16:45:06.935Z,101487.50
2023-01-04T16:47:42.162Z,101487.44
2023-01-04T16:50:10.366Z,101494.63
2023-01-04T16:52:37.289Z,101493.84
2023-01-04T16:55:04.870Z,101485.19
2023-01-04T16:57:31.644Z,101497.69
2023-01-04T16:59:58.369Z,101503.19
2023-01-04T17:02:25.318Z,101497.25
2023-01-04T17:04:57.155Z,101499.78
2023-01-04T17:07:23.918Z,101501.41
2023-01-04T17:09:51.060Z,101499.66
2023-01-04T17:15:41.186Z,101505.53
2023-01-04T17:17:51.676Z,101508.16
2023-01-04T17:20:19.086Z,101508.94
2023-01-04T17:22:45.798Z,101508.16
2023-01-04T17:25:12.615Z,101517.84
2023-01-04T17:27:39.377Z,101502.28
2023-01-04T17:30:06.900Z,101518.84
2023-01-04T17:32:33.623Z,101533.88
2023-01-04T17:35:00.461Z,101529.53
2023-01-04T17:37:27.310Z,101519.06
2023-01-04T17:39:54.510Z,101525.25
2023-01-04T17:42:21.511Z,101527.88
2023-01-04T17:44:49.547Z,101529.63
2023-01-04T17:47:16.407Z,101532.09
2023-01-04T17:49:43.205Z,101540.81
2023-01-04T17:52:13.693Z,101519.94
2023-01-04T17:54:43.350Z,101528.56
2023-01-04T17:57:10.144Z,101527.69
2023-01-04T17:59:36.901Z,101521.53
2023-01-04T18:02:03.941Z,101526.84
2023-01-04T18:04:30.857Z,101538.34
2023-01-04T18:06:57.563Z,101543.78
2023-01-04T18:09:25.793Z,101543.16
2023-01-04T18:11:52.794Z,101554.41
2023-01-04T18:14:19.653Z,101553.56
2023-01-04T18:16:59.237Z,101560.28
2023-01-04T18:19:28.803Z,101554.22
2023-01-04T18:21:56.812Z,101564.56
2023-01-04T18:24:39.777Z,101557.75
2023-01-04T18:27:26.148Z,101561.13
2023-01-04T18:29:55.345Z,101557.75
2023-01-04T18:32:23.119Z,101557.88
2023-01-04T18:34:49.908Z,101566.81
2023-01-04T18:37:18.825Z,101570.47
2023-01-04T18:39:46.159Z,101584.75
2023-01-04T18:42:12.997Z,101582.47
2023-01-04T18:44:46.050Z,101581.56
2023-01-04T18:47:15.539Z,101590.38
2023-01-04T18:49:42.435Z,101588.69
2023-01-04T18:52:09.169Z,101593.94
2023-01-04T18:54:35.894Z,101599.19
2023-01-04T18:57:02.777Z,101593.00
2023-01-04T18:59:30.312Z,101611.34
2023-01-04T19:02:01.965Z,101609.50
2023-01-04T19:04:31.181Z,101612.22
2023-01-04T19:06:57.965Z,101607.03
2023-01-04T19:09:24.831Z,101610.38
2023-01-04T19:11:51.816Z,101609.50
2023-01-04T19:14:18.589Z,101605.13
2023-01-04T19:16:45.422Z,101605.84
2023-01-04T19:19:12.353Z,101609.38
2023-01-04T19:21:39.146Z,101605.78
2023-01-04T19:24:06.024Z,101617.91
2023-01-04T19:26:32.946Z,101610.81
2023-01-04T19:28:59.712Z,101616.00
2023-01-04T19:31:26.464Z,101622.84
2023-01-04T19:33:53.439Z,101617.66
2023-01-04T19:36:20.281Z,101619.38
2023-01-04T19:38:47.009Z,101618.47
2023-01-04T19:41:21.283Z,101621.16
2023-01-04T19:43:48.319Z,101642.13
2023-01-04T19:46:15.917Z,101636.00
2023-01-04T19:48:43.594Z,101644.69
2023-01-04T19:51:14.775Z,101652.53
2023-01-04T19:53:42.959Z,101640.25
2023-01-04T19:56:10.979Z,101634.97
2023-01-04T19:58:38.315Z,101634.13
2023-01-04T20:01:06.313Z,101645.44
2023-01-04T20:03:33.645Z,101647.16
2023-01-04T20:06:04.737Z,101647.16
2023-01-04T20:08:31.722Z,101644.59
2023-01-04T20:10:59.789Z,101638.53
2023-01-04T20:13:27.881Z,101638.53
2023-01-04T20:15:55.019Z,101638.53
2023-01-04T20:18:23.941Z,101641.03
2023-01-04T20:20:52.234Z,101627.41
2023-01-04T20:23:21.779Z,101650.75
2023-01-04T20:25:51.420Z,101647.28
2023-01-04T20:28:20.074Z,101651.63
2023-01-04T20:30:47.840Z,101653.38
2023-01-04T20:33:14.863Z,101650.00
2023-01-04T20:35:43.852Z,101646.44
2023-01-04T20:38:12.101Z,101633.63
2023-01-04T20:40:39.353Z,101646.47
2023-01-04T20:43:24.824Z,101652.56
2023-01-04T20:45:51.840Z,101649.09
2023-01-04T20:48:18.896Z,101654.31
2023-01-04T20:50:45.711Z,101655.09
2023-01-04T20:53:13.654Z,101657.88
2023-01-04T20:55:42.021Z,101666.41
2023-01-04T20:58:10.750Z,101662.13
2023-01-04T21:00:38.946Z,101661.19
2023-01-04T21:03:07.247Z,101667.25
2023-01-04T21:05:44.885Z,101677.84
2023-01-04T21:08:13.231Z,101668.34
2023-01-04T21:10:41.703Z,101672.50
2023-01-04T21:13:09.478Z,101676.00
2023-01-04T21:15:38.118Z,101673.31
2023-01-04T21:18:06.237Z,101663.72
2023-01-04T21:20:33.319Z,101669.69
2023-01-04T21:23:00.030Z,101669.63
2023-01-04T21:25:26.795Z,101670.59
2023-01-04T21:27:53.889Z,101680.06
2023-01-04T21:30:21.278Z,101673.88
2023-01-04T21:32:48.127Z,101675.59
2023-01-04T21:35:15.002Z,101678.22
2023-01-04T21:37:41.725Z,101680.06
2023-01-04T21:40:09.301Z,101684.53
2023-01-04T21:42:36.080Z,101683.72
2023-01-04T21:45:03.088Z,101673.59
2023-01-04T21:47:31.464Z,101666.91
2023-01-04T21:49:58.249Z,101673.59
2023-01-04T21:52:25.192Z,101665.06
2023-01-04T21:54:52.463Z,101669.97
2023-01-04T21:57:19.738Z,101665.97
2023-01-04T21:59:46.525Z,101675.66
2023-01-04T22:02:17.726Z,101675.66
2023-01-04T22:04:45.047Z,101680.16
2023-01-04T22:07:11.969Z,101674.72
2023-01-04T22:09:38.674Z,101684.03
2023-01-04T22:12:05.930Z,101678.66
2023-01-04T22:14:33.171Z,101675.16
2023-01-04T22:17:00.331Z,101673.31
2023-01-04T22:19:27.147Z,101670.75
2023-01-04T22:21:53.963Z,101677.84
2023-01-04T22:24:20.682Z,101677.09
2023-01-04T22:26:49.376Z,101672.88
2023-01-04T22:29:17.087Z,101674.78
2023-01-04T22:31:43.861Z,101679.13
2023-01-04T22:34:10.657Z,101676.44
2023-01-04T22:36:37.368Z,101675.50
2023-01-04T22:39:04.867Z,101684.19
2023-01-04T22:41:31.680Z,101686.75
2023-01-04T22:44:00.435Z,101681.50
2023-01-04T22:46:28.672Z,101683.97
2023-01-04T22:48:56.405Z,101687.47
2023-01-04T22:51:24.685Z,101689.88
2023-01-04T22:53:59.078Z,101686.34
2023-01-04T22:56:26.271Z,101679.28
2023-01-04T22:58:55.480Z,101681.84
2023-01-04T23:01:28.128Z,101689.69
2023-01-04T23:03:55.916Z,101687.06
2023-01-04T23:06:24.356Z,101687.84
2023-01-04T23:09:02.157Z,101687.81
2023-01-04T23:11:30.366Z,101679.94
2023-01-04T23:13:58.151Z,101677.31
2023-01-04T23:16:31.863Z,101674.75
2023-01-04T23:19:00.871Z,101674.75
2023-01-04T23:21:27.674Z,101669.63
2023-01-04T23:23:54.459Z,101678.44
2023-01-04T23:26:23.660Z,101667.94
2023-01-04T23:28:50.924Z,101667.94
2023-01-04T23:31:21.630Z,101672.25
2023-01-04T23:33:53.084Z,101665.28
2023-01-04T23:36:21.306Z,101680.28
2023-01-04T23:38:53.966Z,101674.03
2023-01-04T23:41:20.727Z,101676.66
2023-01-04T23:43:47.565Z,101672.41
2023-01-04T23:46:16.943Z,101669.78
2023-01-04T23:48:44.410Z,101663.78
2023-01-04T23:51:12.979Z,101664.66
2023-01-04T23:53:39.911Z,101668.97
2023-01-04T23:56:14.621Z,101668.97
2023-01-04T23:58:42.002Z,101669.91
